map of YCY home
YCY - Airport
Location
City:  Clyde River, Nunavut, Canada
Name:Clyde River Airport
ICAO:CYCY
IATA:YCY

Details
Type:Airport (Airfield)
Use:Public/Civil
Latitude:7029'09"N (70.485833)
Longitude:6831'01"W (-68.516943)
Elevation:87 ft (27 m)
Variation:34.54W (WMM2015v2 magnetic declination)
0.69 annual change
Runways:1
Longest:3501 ft (1067 m)

Time
Time Zone:UTC-5 (DST-4)
Local Time:

Weather
METAR:CYCY 041400Z 32020KT 25SM IC FEW180 BKN210 M22/M25 A3005 RMK AC2CS5 -21.7/-24.5/M/16 TRACE LOOSE SLP182
TAF:CYCY 041238Z 0413/0501 32020KT 6SM IC FEW008
TEMPO 0413/0422 2SM IC BLSN BKN008
FM042200 31012KT P6SM IC FEW015 SCT180
RMK FCST BASED ON AUTO OBS. NXT FCST BY 041900Z

Related Locations
Nearby:
Farthest:YWKS: 12167 mi / 19580 km
Wilkins Runway (Casey), Upper Peterson Glacier, AQ

Find:

   beyond  
but within

Other Information
Maps:
NOTAMs:
Links:
Sources:

  
  • flag of Canada
  • flag of Nunavut
  

Airport Diagram

Airport diagram for YCY

Airport diagram PDF

Sectional Chart

Flight Planning
at skyvector.com

Satellite Image

Google Maps Satellite view

 

Copyright © 2004-2019 Karl L. Swartz. All rights reserved.
The Great Circle Mapper name and logo are trademarks of the Great Circle Mapper.
All other trademarks mentioned herein belong to their respective owners.
Please see credits for attibutions and further copyright information.

  Follow gcmap on Facebook Follow gcmap on Twitter GCmap on LinkedIn

hCard Microformat

Geo Microformat